Manitou Springs, Colorado
Current Conditions -  °F | °C
As of 2:56 AM on Thursday 29 Jan 2015 (Local Time) from KCWN Reporting Station
Broken Clouds Broken Clouds  
Wind Chill: 34°   Ceiling: 22000
Heat Index: 34°   Visibility: 10mi
Dew Point: 25°   Wind: 2mph
Humidity: 69%   Direction: 310°NW
Pressure: 30.06"   Gusts: NA
Location:  38.86°N, 104.92°W
Report Text: KCWN 290956Z AUTO 31002KT 10SM BKN220 01/M04 A3006 RMK AO2 SLP165 T00121040
Loading
Personal Weather Stations






























Interactive Weather Map New forecast layout! Learn more

10-Day Weather Forecast

Advertisements
Track Severe Weather on mobile